Time;durP1;ratioP1;P1;durP2;ratioP2;P2;SDS_P1;SDS_P2;PMS_P1;PMS_P2;Temp;Humidity;BMP_temperature;BMP_pressure;BME280_temperature;BME280_humidity;BME280_pressure;Samples;Min_cycle;Max_cycle;Signal;HPM_P1;HPM_P2
2023/07/17 00:00:25;;;;;;;4.03;2.67;;;;;;;18.98;61.22;100758.84;5033553;28;20233;-85
2023/07/17 00:02:54;;;;;;;4.50;3.20;;;;;;;18.89;61.48;100754.31;5032135;28;20206;-84
2023/07/17 00:05:22;;;;;;;5.43;2.87;;;;;;;18.78;61.83;100752.66;5041187;28;20210;-83
2023/07/17 00:07:50;;;;;;;4.93;3.07;;;;;;;18.70;61.94;100745.28;5033024;28;20223;-84
2023/07/17 00:10:16;;;;;;;5.40;3.30;;;;;;;18.61;61.84;100750.72;5027800;28;20223;-83
2023/07/17 00:12:43;;;;;;;5.97;2.93;;;;;;;18.51;62.18;100748.00;5031050;28;20589;-84
2023/07/17 00:15:10;;;;;;;5.47;2.97;;;;;;;18.41;62.59;100747.19;5031219;28;20213;-83
2023/07/17 00:17:38;;;;;;;4.27;2.93;;;;;;;18.28;63.10;100747.47;5028670;28;20208;-84
2023/07/17 00:20:06;;;;;;;6.47;3.00;;;;;;;18.16;63.52;100748.66;5033858;28;20269;-83
2023/07/17 00:22:34;;;;;;;6.73;3.83;;;;;;;18.06;63.96;100750.50;5027979;28;20204;-84
2023/07/17 00:25:02;;;;;;;4.60;3.40;;;;;;;17.97;64.46;100745.97;5027401;28;20621;-84
2023/07/17 00:27:29;;;;;;;5.07;3.50;;;;;;;17.90;64.88;100743.00;5027368;28;20232;-83
2023/07/17 00:29:55;;;;;;;5.87;3.30;;;;;;;17.82;65.12;100745.53;5041292;28;20204;-84
2023/07/17 00:32:22;;;;;;;4.77;2.90;;;;;;;17.76;65.41;100750.63;5029055;28;20799;-86
2023/07/17 00:34:48;;;;;;;3.80;3.03;;;;;;;17.68;66.17;100756.72;5027504;28;20208;-84
2023/07/17 00:37:15;;;;;;;4.67;2.90;;;;;;;17.65;66.51;100759.69;5027828;28;20203;-83
2023/07/17 00:39:41;;;;;;;5.20;3.20;;;;;;;17.63;66.53;100756.25;5033530;28;20657;-82
2023/07/17 00:42:12;;;;;;;4.20;2.90;;;;;;;17.62;66.54;100760.78;5033301;28;20679;-85
2023/07/17 00:44:39;;;;;;;4.13;3.03;;;;;;;17.61;66.73;100752.84;5041750;28;20207;-85
2023/07/17 00:47:06;;;;;;;6.57;3.23;;;;;;;17.61;66.77;100753.69;5044037;28;20242;-84
2023/07/17 00:49:35;;;;;;;4.57;2.83;;;;;;;17.56;67.01;100755.94;5033282;28;20204;-84
2023/07/17 00:52:02;;;;;;;4.53;2.83;;;;;;;17.54;67.20;100754.41;5033797;28;20238;-84
2023/07/17 00:54:31;;;;;;;6.13;3.80;;;;;;;17.51;67.57;100760.06;5034464;28;20253;-86
2023/07/17 00:56:59;;;;;;;4.03;3.37;;;;;;;17.50;67.85;100761.06;5028113;28;20597;-83
2023/07/17 00:59:27;;;;;;;7.33;3.10;;;;;;;17.53;68.25;100764.34;5032972;28;20200;-84
2023/07/17 01:01:54;;;;;;;5.13;3.47;;;;;;;17.56;68.21;100760.50;5032427;28;20227;-84
2023/07/17 01:04:21;;;;;;;5.20;3.53;;;;;;;17.59;68.30;100763.75;5030852;28;20215;-84
2023/07/17 01:06:47;;;;;;;4.67;3.00;;;;;;;17.64;68.01;100761.53;5039122;28;20216;-85
2023/07/17 01:09:14;;;;;;;4.33;2.70;;;;;;;17.67;67.68;100757.72;5028175;28;20668;-84
2023/07/17 01:11:40;;;;;;;4.63;3.27;;;;;;;17.68;67.28;100751.34;5040228;28;20237;-84
2023/07/17 01:14:15;;;;;;;5.67;3.10;;;;;;;17.66;67.10;100745.25;5025619;28;20209;-85
2023/07/17 01:16:43;;;;;;;4.63;3.33;;;;;;;17.62;66.90;100746.47;5030839;28;20257;-84
2023/07/17 01:19:09;;;;;;;4.33;2.87;;;;;;;17.60;67.09;100748.47;5030282;28;20211;-83
2023/07/17 01:21:40;;;;;;;5.83;3.40;;;;;;;17.59;67.21;100753.00;5032953;28;20584;-84
2023/07/17 01:24:08;;;;;;;5.07;3.00;;;;;;;17.60;67.23;100753.84;5033241;28;20207;-84
2023/07/17 01:26:34;;;;;;;4.93;3.10;;;;;;;17.61;67.14;100755.53;5032658;28;20713;-84
2023/07/17 01:29:01;;;;;;;6.43;3.50;;;;;;;17.60;66.93;100756.53;5032778;28;20202;-83
2023/07/17 01:31:27;;;;;;;5.90;3.03;;;;;;;17.57;67.04;100754.13;5032138;28;20235;-84
2023/07/17 01:33:54;;;;;;;4.57;3.10;;;;;;;17.55;67.06;100756.97;5038642;28;20220;-85
2023/07/17 01:36:22;;;;;;;5.07;3.27;;;;;;;17.53;67.36;100769.72;5029558;28;20210;-84
2023/07/17 01:38:49;;;;;;;3.90;3.07;;;;;;;17.48;67.47;100788.13;5034991;28;20215;-84
2023/07/17 01:41:17;;;;;;;4.80;3.17;;;;;;;17.45;67.85;100790.25;5038215;28;20596;-84
2023/07/17 01:43:43;;;;;;;5.60;3.60;;;;;;;17.39;68.37;100783.56;5033203;28;20205;-85
2023/07/17 01:46:10;;;;;;;4.07;3.20;;;;;;;17.39;68.81;100793.47;5027934;28;20217;-83
2023/07/17 01:48:36;;;;;;;4.90;3.20;;;;;;;17.39;68.83;100793.47;5031370;28;20263;-84
2023/07/17 01:51:03;;;;;;;7.50;4.57;;;;;;;17.40;69.29;100792.47;5022347;28;20244;-84
2023/07/17 01:53:32;;;;;;;4.67;3.60;;;;;;;17.40;69.18;100779.03;5031590;28;20589;-83
2023/07/17 01:55:59;;;;;;;6.03;3.23;;;;;;;17.38;68.87;100765.69;5025221;28;20203;-84
2023/07/17 01:58:27;;;;;;;4.97;3.57;;;;;;;17.34;69.14;100769.69;5028498;28;20212;-84
2023/07/17 02:00:55;;;;;;;5.40;3.37;;;;;;;17.33;69.22;100768.81;5029235;28;20218;-85
2023/07/17 02:03:21;;;;;;;5.07;3.63;;;;;;;17.31;68.98;100772.63;5024175;28;20198;-84
2023/07/17 02:05:50;;;;;;;4.40;3.17;;;;;;;17.29;69.49;100769.22;5027122;28;20699;-83
2023/07/17 02:08:17;;;;;;;5.27;3.50;;;;;;;17.29;69.66;100767.38;5028306;28;20209;-83
2023/07/17 02:10:44;;;;;;;6.77;3.23;;;;;;;17.29;69.42;100772.78;5030916;28;20228;-82
2023/07/17 02:13:10;;;;;;;5.30;3.17;;;;;;;17.24;69.31;100775.00;5030434;28;20228;-86
2023/07/17 02:15:38;;;;;;;6.50;3.50;;;;;;;17.21;69.68;100769.03;5028387;28;20212;-85
2023/07/17 02:18:05;;;;;;;5.57;3.50;;;;;;;17.17;69.92;100773.88;5026926;28;20735;-83
2023/07/17 02:20:31;;;;;;;3.63;3.00;;;;;;;17.15;70.11;100765.09;5031141;28;20234;-84
2023/07/17 02:22:58;;;;;;;4.63;2.83;;;;;;;17.12;69.82;100769.88;5024762;28;20198;-84
2023/07/17 02:25:24;;;;;;;5.10;2.97;;;;;;;17.06;69.62;100773.09;5027727;28;20205;-84
2023/07/17 02:27:51;;;;;;;6.63;3.77;;;;;;;16.97;69.66;100777.47;5032235;28;20216;-83
2023/07/17 02:30:17;;;;;;;4.17;3.20;;;;;;;16.88;69.77;100775.56;5031664;28;20226;-84
2023/07/17 02:32:46;;;;;;;5.03;3.60;;;;;;;16.76;70.14;100772.13;5026623;28;20229;-82
2023/07/17 02:35:12;;;;;;;4.07;3.10;;;;;;;16.65;70.59;100770.41;5025936;28;20217;-85
2023/07/17 02:37:39;;;;;;;4.77;3.27;;;;;;;16.58;71.46;100777.25;5037203;28;20302;-85
2023/07/17 02:40:12;;;;;;;5.73;3.20;;;;;;;16.54;71.94;100770.41;5035643;28;20711;-85
2023/07/17 02:42:40;;;;;;;5.73;3.03;;;;;;;16.52;72.45;100769.69;5030756;28;20206;-84
2023/07/17 02:45:08;;;;;;;6.13;2.87;;;;;;;16.50;72.91;100763.59;5029715;28;20241;-84
2023/07/17 02:47:37;;;;;;;4.47;3.40;;;;;;;16.50;72.89;100760.06;5024737;28;20714;-84
2023/07/17 02:50:07;;;;;;;4.43;3.43;;;;;;;16.54;73.29;100764.19;5029728;28;20202;-84
2023/07/17 02:52:34;;;;;;;6.03;3.43;;;;;;;16.51;73.06;100765.28;5027254;28;20683;-84
2023/07/17 02:55:02;;;;;;;4.83;3.27;;;;;;;16.52;73.52;100774.22;5032076;28;20204;-84
2023/07/17 02:57:28;;;;;;;3.73;2.97;;;;;;;16.51;73.54;100776.06;5033282;28;20542;-84
2023/07/17 02:59:56;;;;;;;5.87;3.37;;;;;;;16.53;73.97;100774.09;5032432;28;20657;-83
2023/07/17 03:02:25;;;;;;;5.37;3.43;;;;;;;16.54;73.95;100775.78;5030346;28;20793;-84
2023/07/17 03:04:51;;;;;;;4.07;3.27;;;;;;;16.56;74.01;100779.22;5038642;28;20217;-84
2023/07/17 03:07:19;;;;;;;6.03;3.33;;;;;;;16.55;73.51;100777.50;5031930;28;20543;-84
2023/07/17 03:09:46;;;;;;;3.53;2.90;;;;;;;16.51;73.10;100777.88;5033487;28;20209;-85
2023/07/17 03:12:12;;;;;;;5.43;3.60;;;;;;;16.45;73.03;100787.34;5034462;28;20236;-84
2023/07/17 03:14:39;;;;;;;6.30;3.63;;;;;;;16.40;72.92;100783.34;5035776;28;20203;-84
2023/07/17 03:17:05;;;;;;;5.97;3.50;;;;;;;16.35;73.07;100782.88;5031121;28;20204;-84
2023/07/17 03:19:33;;;;;;;6.73;3.80;;;;;;;16.30;73.29;100781.44;5028721;28;20204;-84
2023/07/17 03:21:59;;;;;;;5.10;3.60;;;;;;;16.30;73.27;100788.66;5033011;28;20313;-84
2023/07/17 03:24:27;;;;;;;4.67;3.30;;;;;;;16.29;73.42;100786.97;5034414;28;20555;-84
2023/07/17 03:26:54;;;;;;;5.40;3.80;;;;;;;16.27;73.08;100788.91;5040531;28;20211;-86
2023/07/17 03:29:23;;;;;;;4.17;3.43;;;;;;;16.23;72.80;100788.31;5043354;28;20201;-85
2023/07/17 03:31:49;;;;;;;6.43;3.23;;;;;;;16.23;73.56;100787.47;5034868;28;20232;-85
2023/07/17 03:34:17;;;;;;;3.57;3.07;;;;;;;16.22;73.83;100788.44;5035236;28;20239;-84
2023/07/17 03:36:44;;;;;;;4.60;3.23;;;;;;;16.24;73.96;100794.56;5034245;28;20223;-84
2023/07/17 03:39:10;;;;;;;5.17;3.90;;;;;;;16.24;74.21;100813.38;5037898;28;20646;-85
2023/07/17 03:41:38;;;;;;;4.87;3.83;;;;;;;16.26;74.41;100825.69;5035847;28;20237;-84
2023/07/17 03:44:06;;;;;;;4.87;3.60;;;;;;;16.26;73.89;100828.38;5033135;28;20200;-84
2023/07/17 03:46:33;;;;;;;9.93;3.50;;;;;;;16.24;73.76;100829.50;5033261;28;20201;-85
2023/07/17 03:48:59;;;;;;;4.47;3.30;;;;;;;16.23;73.10;100833.16;5032664;28;20681;-84
2023/07/17 03:51:26;;;;;;;4.70;3.60;;;;;;;16.23;72.46;100841.22;5032816;28;20221;-84
2023/07/17 03:53:52;;;;;;;5.20;3.77;;;;;;;16.22;71.99;100851.13;5030575;28;20313;-84
2023/07/17 03:56:19;;;;;;;8.07;4.37;;;;;;;16.23;71.49;100842.06;5032274;28;20230;-84
2023/07/17 03:58:47;;;;;;;4.93;3.30;;;;;;;16.26;71.11;100840.97;5027948;28;20215;-84
2023/07/17 04:01:14;;;;;;;6.50;3.70;;;;;;;16.27;71.02;100830.09;5021067;28;20237;-85
2023/07/17 04:03:41;;;;;;;6.67;3.23;;;;;;;16.32;70.76;100824.31;5030963;28;20574;-85
2023/07/17 04:06:08;;;;;;;5.90;3.80;;;;;;;16.32;70.43;100822.47;5032403;28;20209;-85
2023/07/17 04:08:34;;;;;;;7.17;3.43;;;;;;;16.36;69.89;100835.66;5037781;28;20205;-85
2023/07/17 04:11:01;;;;;;;6.37;3.20;;;;;;;16.38;69.22;100834.53;5034187;28;20237;-85
2023/07/17 04:13:27;;;;;;;6.33;4.50;;;;;;;16.42;68.64;100824.41;5035564;28;20229;-84
2023/07/17 04:15:55;;;;;;;5.27;3.43;;;;;;;16.45;68.27;100827.69;5027212;28;20212;-85
2023/07/17 04:18:22;;;;;;;5.73;3.80;;;;;;;16.49;67.75;100837.16;5031080;28;20205;-84
2023/07/17 04:20:48;;;;;;;3.47;2.80;;;;;;;16.51;67.45;100834.34;5033036;28;20605;-85
2023/07/17 04:23:15;;;;;;;3.87;3.10;;;;;;;16.57;67.19;100836.53;5038039;28;20208;-85
2023/07/17 04:25:42;;;;;;;4.70;3.20;;;;;;;16.60;66.67;100847.88;5029820;28;20686;-84
2023/07/17 04:28:08;;;;;;;5.80;3.33;;;;;;;16.65;66.49;100867.19;5033672;28;20224;-85
2023/07/17 04:30:37;;;;;;;4.90;2.70;;;;;;;16.72;66.10;100867.50;5032388;28;20611;-84
2023/07/17 04:33:05;;;;;;;6.97;3.27;;;;;;;16.78;66.14;100872.38;5033830;28;20229;-84
2023/07/17 04:35:36;;;;;;;6.53;3.90;;;;;;;16.85;65.92;100867.31;5029157;28;20596;-84
2023/07/17 04:38:03;;;;;;;7.13;3.90;;;;;;;16.90;66.14;100876.69;5025943;28;20617;-85
2023/07/17 04:40:30;;;;;;;6.33;3.33;;;;;;;16.99;66.09;100867.00;5036909;28;20262;-84
2023/07/17 04:42:59;;;;;;;5.87;3.77;;;;;;;17.04;66.33;100871.94;5033593;28;20212;-84
2023/07/17 04:45:25;;;;;;;6.47;3.67;;;;;;;17.08;67.03;100873.38;5032796;28;20225;-85
2023/07/17 04:47:52;;;;;;;5.97;3.53;;;;;;;17.13;66.92;100877.41;5037344;28;20219;-84
2023/07/17 04:50:19;;;;;;;5.63;3.47;;;;;;;17.16;67.03;100878.97;5029914;28;20243;-84
2023/07/17 04:52:46;;;;;;;5.83;3.37;;;;;;;17.19;66.95;100884.09;5033206;28;20239;-84
2023/07/17 04:55:14;;;;;;;4.23;3.40;;;;;;;17.22;66.90;100884.66;5027975;28;20214;-85
2023/07/17 04:57:40;;;;;;;4.43;3.27;;;;;;;17.25;66.69;100878.16;5029098;28;20208;-84
2023/07/17 05:00:09;;;;;;;4.50;3.20;;;;;;;17.30;66.40;100873.22;5030085;28;20218;-84
2023/07/17 05:02:36;;;;;;;6.13;3.70;;;;;;;17.33;65.98;100865.75;5029552;28;20242;-84
2023/07/17 05:05:02;;;;;;;4.70;3.50;;;;;;;17.39;65.61;100875.09;5025485;28;20687;-84
2023/07/17 05:07:30;;;;;;;7.47;3.40;;;;;;;17.47;65.32;100877.13;5034723;28;20206;-85
2023/07/17 05:09:57;;;;;;;7.27;3.53;;;;;;;17.54;65.24;100884.53;5034140;28;20224;-84
2023/07/17 05:12:23;;;;;;;5.50;3.27;;;;;;;17.63;64.99;100875.63;5028883;28;20231;-84
2023/07/17 05:14:49;;;;;;;4.77;3.30;;;;;;;17.73;64.71;100878.41;5027583;28;20600;-84
2023/07/17 05:17:16;;;;;;;3.97;3.00;;;;;;;17.82;64.56;100888.31;5029583;28;20645;-85
2023/07/17 05:19:43;;;;;;;5.23;3.23;;;;;;;17.90;64.46;100891.19;5036701;28;20213;-84
2023/07/17 05:22:09;;;;;;;5.03;3.23;;;;;;;17.98;64.12;100885.09;5025395;28;20619;-84
2023/07/17 05:24:38;;;;;;;4.23;3.10;;;;;;;18.06;63.40;100879.88;5028637;28;20217;-84
2023/07/17 05:27:05;;;;;;;5.80;3.57;;;;;;;18.12;63.33;100882.00;5029188;28;20650;-84
2023/07/17 05:29:31;;;;;;;4.77;2.90;;;;;;;18.19;63.31;100875.06;5031969;28;20205;-84
2023/07/17 05:31:58;;;;;;;4.17;2.63;;;;;;;18.27;63.15;100874.38;5021411;28;20230;-84
2023/07/17 05:34:24;;;;;;;5.37;3.30;;;;;;;18.34;63.18;100873.66;5024352;28;20709;-84
2023/07/17 05:36:53;;;;;;;4.30;2.80;;;;;;;18.45;63.10;100877.22;5029695;28;20291;-85
2023/07/17 05:39:20;;;;;;;4.80;2.80;;;;;;;18.52;62.80;100876.47;5028725;28;20202;-85
2023/07/17 05:41:47;;;;;;;5.37;2.77;;;;;;;18.60;62.20;100879.38;5028828;28;20221;-85
2023/07/17 05:44:14;;;;;;;5.20;2.90;;;;;;;18.66;62.03;100873.38;5025595;28;20205;-85
2023/07/17 05:46:40;;;;;;;7.23;3.53;;;;;;;18.71;62.15;100864.84;5023793;28;20210;-85
2023/07/17 05:49:07;;;;;;;5.73;2.90;;;;;;;18.77;62.23;100858.03;5031875;28;20215;-84
2023/07/17 05:51:33;;;;;;;5.57;3.50;;;;;;;18.81;61.94;100865.69;5028123;28;20229;-84
2023/07/17 05:54:01;;;;;;;5.33;2.90;;;;;;;18.86;61.98;100873.34;5030093;28;20229;-84
2023/07/17 05:56:27;;;;;;;5.53;3.03;;;;;;;18.91;62.14;100871.94;5036153;28;20213;-85
2023/07/17 05:58:55;;;;;;;5.30;3.30;;;;;;;18.99;62.33;100873.88;5032742;28;20210;-84
2023/07/17 06:01:21;;;;;;;5.33;3.00;;;;;;;19.05;62.40;100862.50;5023077;28;20225;-84
2023/07/17 06:03:48;;;;;;;5.27;3.10;;;;;;;19.11;62.29;100872.72;5029404;28;20205;-84
2023/07/17 06:06:14;;;;;;;4.83;3.43;;;;;;;19.17;61.48;100877.53;5033017;28;20199;-84
2023/07/17 06:08:41;;;;;;;5.27;3.43;;;;;;;19.19;61.13;100883.63;5026601;28;20224;-84
2023/07/17 06:11:08;;;;;;;5.67;2.97;;;;;;;19.25;60.58;100888.44;5025778;28;20225;-83
2023/07/17 06:13:34;;;;;;;6.07;3.00;;;;;;;19.26;60.54;100895.56;5028768;28;20229;-84
2023/07/17 06:16:02;;;;;;;5.83;3.10;;;;;;;19.28;60.20;100890.00;5022182;28;20207;-85
2023/07/17 06:18:29;;;;;;;3.87;3.07;;;;;;;19.30;59.96;100894.28;5029648;28;20207;-84
2023/07/17 06:20:55;;;;;;;6.87;2.90;;;;;;;19.35;60.00;100894.66;5028503;28;20240;-84
2023/07/17 06:23:22;;;;;;;6.70;3.50;;;;;;;19.39;60.10;100901.47;5026657;28;20224;-85
2023/07/17 06:25:49;;;;;;;5.33;3.37;;;;;;;19.46;59.75;100903.59;5033128;28;20208;-84
2023/07/17 06:28:16;;;;;;;6.33;3.03;;;;;;;19.55;59.72;100897.31;5030484;28;20229;-85
2023/07/17 06:30:46;;;;;;;5.50;2.80;;;;;;;19.64;59.81;100908.09;5030247;28;20236;-84
2023/07/17 06:33:14;;;;;;;4.93;2.60;;;;;;;19.72;59.78;100905.47;5027624;28;20239;-84
2023/07/17 06:35:40;;;;;;;6.20;3.40;;;;;;;19.82;59.61;100912.72;5020054;28;20200;-84
2023/07/17 06:38:07;;;;;;;3.80;3.10;;;;;;;19.89;59.54;100911.09;5024687;28;20248;-84
2023/07/17 06:40:34;;;;;;;4.93;3.10;;;;;;;19.99;59.54;100911.91;5025275;28;20239;-85
2023/07/17 06:43:01;;;;;;;4.73;2.93;;;;;;;20.08;58.90;100910.97;5023472;28;20737;-83
2023/07/17 06:45:30;;;;;;;4.43;2.50;;;;;;;20.16;58.49;100905.66;5023225;28;20220;-84
2023/07/17 06:47:57;;;;;;;4.20;2.20;;;;;;;20.23;58.21;100914.03;5023393;28;20211;-84
2023/07/17 06:50:25;;;;;;;4.30;2.07;;;;;;;20.30;57.22;100907.84;5027151;28;20229;-84
2023/07/17 06:52:51;;;;;;;2.70;2.10;;;;;;;20.35;57.32;100916.34;5026331;28;20211;-85
2023/07/17 06:55:19;;;;;;;5.00;2.53;;;;;;;20.37;57.06;100918.94;5025572;28;20325;-85
2023/07/17 06:57:46;;;;;;;4.60;2.20;;;;;;;20.38;55.99;100923.34;5026546;28;20209;-85
2023/07/17 07:00:13;;;;;;;3.30;2.03;;;;;;;20.36;55.63;100926.19;5024061;28;20209;-84
2023/07/17 07:02:40;;;;;;;3.93;1.80;;;;;;;20.35;55.63;100927.16;5020938;28;20219;-84
2023/07/17 07:05:07;;;;;;;3.33;1.97;;;;;;;20.32;55.13;100932.03;5019677;28;20213;-83
2023/07/17 07:07:35;;;;;;;4.67;2.60;;;;;;;20.33;55.24;100921.06;5028126;28;20300;-85
2023/07/17 07:10:01;;;;;;;3.30;2.28;;;;;;;20.42;55.93;100925.56;5020766;28;20208;-84
2023/07/17 07:12:28;;;;;;;4.80;2.33;;;;;;;20.59;55.45;100923.03;5026575;28;20237;-85
2023/07/17 07:14:54;;;;;;;3.33;2.17;;;;;;;20.76;55.23;100931.16;5022850;28;20242;-83
2023/07/17 07:17:21;;;;;;;5.03;2.28;;;;;;;20.92;54.54;100937.69;5023705;28;20599;-84
2023/07/17 07:19:47;;;;;;;2.78;2.10;;;;;;;21.03;53.51;100923.91;5023734;28;20577;-84
2023/07/17 07:22:14;;;;;;;2.55;1.92;;;;;;;21.13;53.10;100924.66;5025579;28;20225;-84
2023/07/17 07:24:42;;;;;;;3.25;1.85;;;;;;;21.27;53.11;100925.97;5025506;28;20198;-83
2023/07/17 07:27:09;;;;;;;2.85;1.80;;;;;;;21.41;52.72;100937.06;5030037;28;20344;-85
2023/07/17 07:29:35;;;;;;;2.00;1.60;;;;;;;21.55;52.08;100934.75;5027504;28;20206;-85
2023/07/17 07:32:02;;;;;;;3.95;2.30;;;;;;;21.70;52.46;100933.13;5024531;28;20218;-85
2023/07/17 07:34:28;;;;;;;3.20;2.30;;;;;;;21.86;52.06;100937.78;5023600;28;20229;-86
2023/07/17 07:36:55;;;;;;;5.03;1.95;;;;;;;21.98;52.11;100940.06;5030438;28;20204;-85
2023/07/17 07:39:21;;;;;;;3.70;2.10;;;;;;;22.10;51.77;100930.63;5032558;28;20206;-84
2023/07/17 07:41:49;;;;;;;3.45;2.10;;;;;;;22.25;50.93;100924.56;5021055;28;20230;-84
2023/07/17 07:44:15;;;;;;;3.15;1.48;;;;;;;22.36;51.29;100933.25;5030452;28;20201;-83
2023/07/17 07:46:42;;;;;;;3.17;1.50;;;;;;;22.52;49.93;100929.72;5033795;28;20217;-84
2023/07/17 07:49:09;;;;;;;2.53;1.77;;;;;;;22.59;49.69;100936.16;5028985;28;20278;-84
2023/07/17 07:51:36;;;;;;;3.28;1.98;;;;;;;22.66;49.47;100942.63;5028273;28;20760;-85
2023/07/17 07:54:03;;;;;;;2.05;1.50;;;;;;;22.73;49.63;100946.38;5033260;28;20236;-84
2023/07/17 07:56:29;;;;;;;2.72;1.55;;;;;;;22.85;49.69;100938.75;5028945;28;20214;-85
2023/07/17 07:58:57;;;;;;;3.38;1.52;;;;;;;22.96;48.39;100943.00;5029205;28;20202;-84
2023/07/17 08:01:23;;;;;;;2.03;1.30;;;;;;;22.94;47.65;100948.59;5028490;28;20229;-84
2023/07/17 08:03:50;;;;;;;2.75;1.60;;;;;;;22.95;47.76;100946.72;5029911;28;20210;-85
2023/07/17 08:06:16;;;;;;;2.47;1.88;;;;;;;23.02;48.06;100939.59;5029111;28;20294;-85
2023/07/17 08:08:43;;;;;;;2.00;1.45;;;;;;;23.17;48.01;100938.72;5028959;28;20212;-84
2023/07/17 08:11:09;;;;;;;2.10;1.60;;;;;;;23.31;47.48;100942.63;5029606;28;20232;-84
2023/07/17 08:13:36;;;;;;;2.08;1.30;;;;;;;23.45;47.10;100941.09;5029243;28;20206;-84
2023/07/17 08:16:04;;;;;;;3.10;1.40;;;;;;;23.48;46.27;100949.72;5028910;28;20576;-84
2023/07/17 08:18:31;;;;;;;2.80;1.38;;;;;;;23.45;45.72;100941.09;5024875;28;20301;-84
2023/07/17 08:20:57;;;;;;;2.85;1.40;;;;;;;23.39;45.63;100944.47;5029819;28;20226;-85
2023/07/17 08:23:27;;;;;;;2.25;1.30;;;;;;;23.36;45.93;100944.81;5026054;28;20213;-85
2023/07/17 08:25:54;;;;;;;2.20;1.40;;;;;;;23.36;46.02;100953.81;5019382;28;20209;-83
2023/07/17 08:28:21;;;;;;;2.63;1.73;;;;;;;23.41;45.84;100954.16;5028798;28;20297;-84
2023/07/17 08:30:47;;;;;;;1.98;1.40;;;;;;;23.49;45.70;100956.84;5029495;28;20226;-84
2023/07/17 08:33:15;;;;;;;3.17;1.67;;;;;;;23.62;45.76;100950.06;5029749;28;20228;-84
2023/07/17 08:35:43;;;;;;;2.70;1.40;;;;;;;23.78;45.66;100941.84;5027751;28;20229;-84
2023/07/17 08:38:09;;;;;;;3.00;1.48;;;;;;;23.95;45.25;100946.22;5022480;28;20203;-84
2023/07/17 08:40:40;;;;;;;2.58;1.25;;;;;;;24.13;45.11;100945.97;5030477;28;20240;-84
2023/07/17 08:43:07;;;;;;;2.40;1.42;;;;;;;24.29;43.98;100936.88;5027174;28;20202;-84
2023/07/17 08:45:34;;;;;;;2.58;1.27;;;;;;;24.40;43.46;100934.59;5030117;28;20250;-84
2023/07/17 08:48:01;;;;;;;2.47;1.50;;;;;;;24.52;42.93;100933.16;5024158;28;20206;-84
2023/07/17 08:50:30;;;;;;;2.15;1.30;;;;;;;24.64;42.85;100936.31;5027691;28;20253;-84
2023/07/17 08:52:56;;;;;;;2.90;1.35;;;;;;;24.76;42.07;100931.25;5029199;28;20202;-84
2023/07/17 08:55:23;;;;;;;2.55;1.45;;;;;;;24.84;42.20;100932.06;5030000;28;20258;-85
2023/07/17 08:57:53;;;;;;;2.17;1.30;;;;;;;24.94;42.21;100912.75;5031357;28;20205;-84
2023/07/17 09:00:20;;;;;;;2.10;1.27;;;;;;;25.03;41.45;100936.19;5027978;28;20206;-83
2023/07/17 09:02:46;;;;;;;2.42;1.52;;;;;;;25.10;41.21;100926.22;5019352;28;20207;-84
2023/07/17 09:05:13;;;;;;;2.40;1.55;;;;;;;25.18;41.64;100928.88;5030955;28;20202;-84
2023/07/17 09:07:41;;;;;;;3.65;1.60;;;;;;;25.29;40.98;100924.84;5029002;28;20202;-84
2023/07/17 09:10:19;;;;;;;2.20;1.50;;;;;;;25.39;41.16;100928.16;5026462;28;20663;-84
2023/07/17 09:12:51;;;;;;;2.10;1.35;;;;;;;25.53;40.52;100932.78;5027980;28;20289;-85
2023/07/17 09:15:18;;;;;;;2.35;1.30;;;;;;;25.62;39.86;100927.25;5021041;28;20326;-84
2023/07/17 09:17:45;;;;;;;1.88;1.50;;;;;;;25.65;39.68;100935.06;5023905;28;20210;-84
2023/07/17 09:20:13;;;;;;;2.83;1.80;;;;;;;25.74;39.16;100939.41;5025408;28;20667;-84
2023/07/17 09:22:42;;;;;;;2.88;1.40;;;;;;;25.81;38.99;100932.97;5024286;28;20249;-84
2023/07/17 09:25:09;;;;;;;3.22;1.50;;;;;;;25.84;38.25;100934.47;5030371;28;20210;-84
2023/07/17 09:27:46;;;;;;;2.47;1.40;;;;;;;25.83;37.83;100938.25;5023386;28;20214;-83
2023/07/17 09:30:14;;;;;;;3.50;1.58;;;;;;;25.76;38.21;100946.38;5026369;28;20228;-85
2023/07/17 09:32:41;;;;;;;2.60;1.35;;;;;;;25.72;38.02;100944.19;5029922;28;20205;-84
2023/07/17 09:35:11;;;;;;;3.95;1.70;;;;;;;25.64;38.23;100944.28;5026653;28;20229;-83
2023/07/17 09:37:39;;;;;;;2.15;1.40;;;;;;;25.56;38.24;100940.59;5025240;28;20214;-83
2023/07/17 09:40:09;;;;;;;1.65;1.35;;;;;;;25.45;37.78;100941.03;5031059;28;20576;-84
2023/07/17 09:42:36;;;;;;;2.55;1.48;;;;;;;25.37;37.73;100943.00;5031444;28;20210;-84
2023/07/17 09:45:04;;;;;;;3.35;1.60;;;;;;;25.34;37.78;100936.06;5030951;28;20195;-83
2023/07/17 09:47:31;;;;;;;3.25;1.73;;;;;;;25.28;37.79;100942.25;5023992;28;20210;-84
2023/07/17 09:49:59;;;;;;;3.05;1.50;;;;;;;25.32;38.61;100943.56;5024385;28;20796;-84
2023/07/17 09:52:28;;;;;;;2.20;1.77;;;;;;;25.36;38.49;100935.88;5029805;28;20752;-84
2023/07/17 09:54:57;;;;;;;2.10;1.50;;;;;;;25.44;38.51;100939.34;5024802;28;20601;-84
2023/07/17 09:57:28;;;;;;;2.40;1.58;;;;;;;25.50;38.34;100949.50;5023598;28;20210;-84
2023/07/17 09:59:56;;;;;;;4.22;1.40;;;;;;;25.53;38.07;100943.69;5027310;28;20233;-85
2023/07/17 10:02:28;;;;;;;2.80;1.67;;;;;;;25.58;37.55;100948.59;5024926;28;20288;-84
2023/07/17 10:04:59;;;;;;;2.55;1.35;;;;;;;25.53;37.58;100949.13;5028094;28;20245;-84
2023/07/17 10:07:26;;;;;;;3.50;1.95;;;;;;;25.44;37.53;100949.44;5026228;28;20209;-84
2023/07/17 10:09:53;;;;;;;2.15;1.60;;;;;;;25.41;37.42;100945.19;5025429;28;20210;-84
2023/07/17 10:12:20;;;;;;;5.93;2.25;;;;;;;25.38;37.77;100950.16;5024514;28;20233;-83
2023/07/17 10:14:49;;;;;;;5.28;1.90;;;;;;;25.29;36.80;100954.84;5022371;28;20240;-84
2023/07/17 10:17:28;;;;;;;2.40;1.67;;;;;;;25.20;36.90;100967.72;5026613;28;20214;-84
2023/07/17 10:19:57;;;;;;;3.30;1.80;;;;;;;25.17;37.85;100973.53;5023423;28;20665;-83
2023/07/17 10:22:28;;;;;;;3.58;2.00;;;;;;;25.21;37.97;100968.56;5028030;28;20240;-82
2023/07/17 10:24:55;;;;;;;3.15;1.52;;;;;;;25.22;37.61;100967.53;5027563;28;20292;-82
2023/07/17 10:27:37;;;;;;;2.10;1.55;;;;;;;25.18;37.54;100971.66;5031325;28;20206;-83
2023/07/17 10:30:22;;;;;;;2.80;1.67;;;;;;;25.12;37.23;100972.38;5023100;28;20202;-82
2023/07/17 10:32:51;;;;;;;4.65;1.80;;;;;;;25.05;37.18;100971.44;5022138;28;20206;-85
2023/07/17 10:35:21;;;;;;;3.47;1.95;;;;;;;25.06;37.36;100967.69;5027895;28;20595;-84
2023/07/17 10:37:47;;;;;;;2.83;1.80;;;;;;;25.08;37.66;100966.44;5030067;28;20213;-83
2023/07/17 10:40:27;;;;;;;3.45;1.98;;;;;;;25.08;37.19;100962.91;5036211;28;20664;-84
2023/07/17 10:42:53;;;;;;;2.20;1.65;;;;;;;25.03;37.25;100965.31;5028866;28;20232;-83
2023/07/17 10:45:21;;;;;;;2.63;1.80;;;;;;;25.02;38.14;100966.34;5020330;28;20199;-83
2023/07/17 10:47:49;;;;;;;3.10;1.88;;;;;;;25.09;38.31;100956.38;5027361;28;20202;-83
2023/07/17 10:50:17;;;;;;;6.88;2.00;;;;;;;25.17;37.82;100959.06;5024655;28;20209;-83
2023/07/17 10:52:43;;;;;;;2.88;1.45;;;;;;;25.31;37.97;100960.97;5021464;28;20198;-83
2023/07/17 10:55:10;;;;;;;4.20;1.80;;;;;;;25.39;37.62;100969.06;5022057;28;20237;-84
2023/07/17 10:57:38;;;;;;;2.95;1.70;;;;;;;25.45;37.10;100972.91;5028047;28;20212;-84
2023/07/17 11:00:05;;;;;;;2.28;1.42;;;;;;;25.42;36.83;100965.97;5023307;28;20198;-84
2023/07/17 11:02:36;;;;;;;4.22;1.80;;;;;;;25.45;36.85;100978.38;5027478;28;20207;-84
2023/07/17 11:05:04;;;;;;;3.72;1.92;;;;;;;25.46;37.28;100969.16;5025474;28;20202;-84
2023/07/17 11:07:33;;;;;;;3.15;1.50;;;;;;;25.45;36.97;100967.47;5021007;28;20202;-84
2023/07/17 11:10:00;;;;;;;4.32;2.13;;;;;;;25.41;36.95;100964.28;5029713;28;20202;-84
2023/07/17 11:12:26;;;;;;;3.33;2.05;;;;;;;25.35;36.90;100962.28;5034897;28;20240;-83
2023/07/17 11:14:53;;;;;;;1.88;1.65;;;;;;;25.35;37.26;100969.63;5027050;28;20224;-84
2023/07/17 11:17:20;;;;;;;3.50;1.85;;;;;;;25.38;36.96;100966.53;5032802;28;20583;-84
2023/07/17 11:19:48;;;;;;;3.88;1.95;;;;;;;25.37;36.81;100970.28;5033337;28;20217;-83
2023/07/17 11:22:14;;;;;;;3.58;1.63;;;;;;;25.36;36.82;100974.03;5037306;28;20682;-84
2023/07/17 11:24:42;;;;;;;2.63;2.05;;;;;;;25.38;36.68;100969.25;5031719;28;20654;-85